createdAt,value
2022-11-10T00:00:43.736Z,3.04
2022-11-10T00:03:40.385Z,3.10
2022-11-10T00:06:35.500Z,3.10
2022-11-10T00:09:30.248Z,3.10
2022-11-10T00:12:25.066Z,3.20
2022-11-10T00:15:38.021Z,3.20
2022-11-10T00:18:32.413Z,3.20
2022-11-10T00:21:27.180Z,3.20
2022-11-10T00:24:21.978Z,3.20
2022-11-10T00:27:16.371Z,3.28
2022-11-10T00:30:13.439Z,3.30
2022-11-10T00:33:08.601Z,3.32
2022-11-10T00:36:06.188Z,3.40
2022-11-10T00:39:00.638Z,3.40
2022-11-10T00:41:55.535Z,3.50
2022-11-10T00:44:50.266Z,3.50
2022-11-10T00:47:46.289Z,3.60
2022-11-10T00:50:40.978Z,3.60
2022-11-10T00:53:36.074Z,3.70
2022-11-10T00:56:30.624Z,3.80
2022-11-10T00:59:24.892Z,3.90
2022-11-10T01:02:19.304Z,4.00
2022-11-10T01:05:15.244Z,4.10
2022-11-10T01:08:09.802Z,4.20
2022-11-10T01:11:10.872Z,4.30
2022-11-10T01:14:05.978Z,4.38
2022-11-10T01:17:03.057Z,4.40
2022-11-10T01:19:57.765Z,4.50
2022-11-10T01:22:52.279Z,4.50
2022-11-10T01:25:47.117Z,4.50
2022-11-10T01:28:43.528Z,4.50
2022-11-10T01:31:38.327Z,4.54
2022-11-10T01:34:33.114Z,4.54
2022-11-10T01:37:28.417Z,4.50
2022-11-10T01:40:23.699Z,4.50
2022-11-10T01:43:19.252Z,4.50
2022-11-10T01:46:16.906Z,4.46
2022-11-10T01:49:13.387Z,4.40
2022-11-10T01:52:14.347Z,4.40
2022-11-10T01:55:10.569Z,4.40
2022-11-10T01:58:05.408Z,4.40
2022-11-10T02:01:00.072Z,4.30
2022-11-10T02:04:00.270Z,4.30
2022-11-10T02:06:56.313Z,4.30
2022-11-10T02:09:59.736Z,4.20
2022-11-10T02:12:54.612Z,4.20
2022-11-10T02:15:49.544Z,4.20
2022-11-10T02:18:44.183Z,4.10
2022-11-10T02:21:39.481Z,4.10
2022-11-10T02:24:34.071Z,4.14
2022-11-10T02:27:28.834Z,4.20
2022-11-10T02:30:27.536Z,4.20
2022-11-10T02:33:23.458Z,4.20
2022-11-10T02:36:18.408Z,4.26
2022-11-10T02:39:12.689Z,4.30
2022-11-10T02:42:10.488Z,4.30
2022-11-10T02:45:05.881Z,4.40
2022-11-10T02:48:00.834Z,4.40
2022-11-10T02:50:55.579Z,4.40
2022-11-10T02:53:50.245Z,4.50
2022-11-10T02:56:44.918Z,4.50
2022-11-10T02:59:39.311Z,4.50
2022-11-10T03:02:33.872Z,4.50
2022-11-10T03:05:28.971Z,4.50
2022-11-10T03:08:23.213Z,4.50
2022-11-10T03:11:17.582Z,4.50
2022-11-10T03:14:12.814Z,4.50
2022-11-10T03:17:07.467Z,4.50
2022-11-10T03:20:01.860Z,4.50
2022-11-10T03:23:00.896Z,4.50
2022-11-10T03:25:55.410Z,4.52
2022-11-10T03:28:49.610Z,4.50
2022-11-10T03:31:44.258Z,4.50
2022-11-10T03:34:39.034Z,4.56
2022-11-10T03:37:33.672Z,4.60
2022-11-10T03:40:28.417Z,4.60
2022-11-10T03:43:23.187Z,4.60
2022-11-10T03:46:18.245Z,4.60
2022-11-10T03:49:13.183Z,4.60
2022-11-10T03:52:08.379Z,4.60
2022-11-10T03:55:03.649Z,4.60
2022-11-10T03:58:01.988Z,4.60
2022-11-10T04:00:58.239Z,4.60
2022-11-10T04:03:52.684Z,4.70
2022-11-10T04:07:04.965Z,4.70
2022-11-10T04:09:59.793Z,4.80
2022-11-10T04:13:12.303Z,4.86
2022-11-10T04:16:07.078Z,4.90
2022-11-10T04:19:01.960Z,5.00
2022-11-10T04:21:56.797Z,5.00
2022-11-10T04:24:51.751Z,5.10
2022-11-10T04:27:46.138Z,5.10
2022-11-10T04:30:40.506Z,5.16
2022-11-10T04:33:35.220Z,5.20
2022-11-10T04:36:32.908Z,5.20
2022-11-10T04:39:27.827Z,5.30
2022-11-10T04:42:22.209Z,5.30
2022-11-10T04:45:17.410Z,5.36
2022-11-10T04:48:12.394Z,5.40
2022-11-10T04:51:10.978Z,5.40
2022-11-10T04:54:08.012Z,5.50
2022-11-10T04:57:02.716Z,5.50
2022-11-10T04:59:57.538Z,5.60
2022-11-10T05:02:52.219Z,5.60
2022-11-10T05:05:46.932Z,5.60
2022-11-10T05:08:43.362Z,5.60
2022-11-10T05:11:38.409Z,5.70
2022-11-10T05:14:32.821Z,5.70
2022-11-10T05:17:27.182Z,5.70
2022-11-10T05:20:24.004Z,5.70
2022-11-10T05:23:36.332Z,5.80
2022-11-10T05:26:29.447Z,5.80
2022-11-10T05:29:24.070Z,5.80
2022-11-10T05:32:18.540Z,5.80
2022-11-10T05:35:14.788Z,5.90
2022-11-10T05:38:09.788Z,5.90
2022-11-10T05:41:04.363Z,5.90
2022-11-10T05:43:59.020Z,5.90
2022-11-10T05:46:53.530Z,6.00
2022-11-10T05:49:48.390Z,6.00
2022-11-10T05:52:50.166Z,6.00
2022-11-10T05:55:45.424Z,6.10
2022-11-10T05:58:40.107Z,6.10
2022-11-10T06:01:34.527Z,6.10
2022-11-10T06:04:29.310Z,6.20
2022-11-10T06:07:23.980Z,6.20
2022-11-10T06:10:19.161Z,6.20
2022-11-10T06:13:13.834Z,6.28
2022-11-10T06:16:09.629Z,6.30
2022-11-10T06:19:04.225Z,6.36
2022-11-10T06:22:03.601Z,6.40
2022-11-10T06:25:01.193Z,6.48
2022-11-10T06:27:55.698Z,6.50
2022-11-10T06:30:50.841Z,6.60
2022-11-10T06:33:45.728Z,6.60
2022-11-10T06:36:40.903Z,6.70
2022-11-10T06:39:35.300Z,6.70
2022-11-10T06:42:30.072Z,6.80
2022-11-10T06:45:25.015Z,6.80
2022-11-10T06:48:19.662Z,6.82
2022-11-10T06:51:14.032Z,6.90
2022-11-10T06:54:09.672Z,6.90
2022-11-10T06:57:04.272Z,7.00
2022-11-10T06:59:59.087Z,7.00
2022-11-10T07:03:04.229Z,7.00
2022-11-10T07:05:59.328Z,7.00
2022-11-10T07:08:53.938Z,7.10
2022-11-10T07:11:48.519Z,7.10
2022-11-10T07:14:42.898Z,7.18
2022-11-10T07:17:41.993Z,7.20
2022-11-10T07:20:36.970Z,7.20
2022-11-10T07:23:32.091Z,7.28
2022-11-10T07:26:26.465Z,7.30
2022-11-10T07:29:20.933Z,7.30
2022-11-10T07:32:16.293Z,7.40
2022-11-10T07:35:11.569Z,7.40
2022-11-10T07:38:09.611Z,7.50
2022-11-10T07:41:04.435Z,7.50
2022-11-10T07:43:58.838Z,7.60
2022-11-10T07:46:53.506Z,7.60
2022-11-10T07:49:48.266Z,7.70
2022-11-10T07:52:43.547Z,7.70
2022-11-10T07:55:39.964Z,7.80
2022-11-10T07:58:35.557Z,7.80
2022-11-10T08:01:29.992Z,7.86
2022-11-10T08:04:24.829Z,7.90
2022-11-10T08:07:20.026Z,7.90
2022-11-10T08:10:15.407Z,8.00
2022-11-10T08:13:13.808Z,8.00
2022-11-10T08:16:09.711Z,8.08
2022-11-10T08:19:04.404Z,8.10
2022-11-10T08:21:59.752Z,8.12
2022-11-10T08:24:54.465Z,8.20
2022-11-10T08:27:48.995Z,8.20
2022-11-10T08:30:47.037Z,8.30
2022-11-10T08:33:41.760Z,8.30
2022-11-10T08:36:37.781Z,8.40
2022-11-10T08:39:39.095Z,8.40
2022-11-10T08:42:34.000Z,8.46
2022-11-10T08:45:29.472Z,8.50
2022-11-10T08:48:25.802Z,8.50
2022-11-10T08:51:21.711Z,8.60
2022-11-10T08:54:16.130Z,8.64
2022-11-10T08:57:10.514Z,8.70
2022-11-10T09:00:06.436Z,8.80
2022-11-10T09:03:07.308Z,8.80
2022-11-10T09:06:02.950Z,8.90
2022-11-10T09:08:57.800Z,8.92
2022-11-10T09:11:52.673Z,9.00
2022-11-10T09:14:46.959Z,9.00
2022-11-10T09:17:42.965Z,9.08
2022-11-10T09:20:39.842Z,9.10
2022-11-10T09:23:34.388Z,9.10
2022-11-10T09:26:29.173Z,9.10
2022-11-10T09:29:24.493Z,9.20
2022-11-10T09:32:19.142Z,9.20
2022-11-10T09:35:14.627Z,9.30
2022-11-10T09:38:09.401Z,9.32
2022-11-10T09:41:10.282Z,9.40
2022-11-10T09:44:17.329Z,9.50
2022-11-10T09:47:50.626Z,9.52
2022-11-10T09:50:48.855Z,9.60
2022-11-10T09:53:52.243Z,9.70
2022-11-10T09:56:46.993Z,9.72
2022-11-10T09:59:42.574Z,9.80
2022-11-10T10:02:43.161Z,9.90
2022-11-10T10:06:07.859Z,10.00
2022-11-10T10:09:20.839Z,10.10
2022-11-10T10:12:44.201Z,10.10
2022-11-10T10:15:54.556Z,10.20
2022-11-10T10:19:08.205Z,10.20
2022-11-10T10:22:40.573Z,10.30
2022-11-10T10:25:39.133Z,10.30
2022-11-10T10:28:39.163Z,10.30
2022-11-10T10:31:41.444Z,10.30
2022-11-10T10:34:36.956Z,10.30
2022-11-10T10:37:44.146Z,10.30
2022-11-10T10:40:38.898Z,10.30
2022-11-10T10:43:33.765Z,10.34
2022-11-10T10:46:34.473Z,10.40
2022-11-10T10:49:33.536Z,10.40
2022-11-10T10:52:28.113Z,10.40
2022-11-10T10:55:28.597Z,10.40
2022-11-10T10:58:32.803Z,10.48
2022-11-10T11:01:35.728Z,10.50
2022-11-10T11:04:38.067Z,10.50
2022-11-10T11:07:32.720Z,10.56
2022-11-10T11:10:32.648Z,10.60
2022-11-10T11:13:30.576Z,10.60
2022-11-10T11:16:25.496Z,10.62
2022-11-10T11:19:22.296Z,10.70
2022-11-10T11:22:53.817Z,10.70
2022-11-10T11:25:51.997Z,10.70
2022-11-10T11:29:14.065Z,10.80
2022-11-10T11:32:32.310Z,10.80
2022-11-10T11:35:43.832Z,10.90
2022-11-10T11:38:55.842Z,10.90
2022-11-10T11:42:05.980Z,11.00
2022-11-10T11:45:25.662Z,11.00
2022-11-10T11:48:49.011Z,11.10
2022-11-10T11:51:57.223Z,11.10
2022-11-10T11:55:19.651Z,11.10
2022-11-10T11:58:35.227Z,11.10
2022-11-10T12:01:52.295Z,11.00
2022-11-10T12:05:05.094Z,11.00
2022-11-10T12:08:14.002Z,11.10
2022-11-10T12:11:22.262Z,11.10
2022-11-10T12:14:34.400Z,11.10
2022-11-10T12:17:48.041Z,11.20
2022-11-10T12:20:57.193Z,11.20
2022-11-10T12:24:26.237Z,11.20
2022-11-10T12:27:29.635Z,11.20
2022-11-10T12:30:24.847Z,11.30
2022-11-10T12:33:38.318Z,11.30
2022-11-10T12:36:34.976Z,11.20
2022-11-10T12:39:43.106Z,11.20
2022-11-10T12:42:40.223Z,11.20
2022-11-10T12:45:42.173Z,11.10
2022-11-10T12:48:47.466Z,11.10
2022-11-10T12:51:56.065Z,11.12
2022-11-10T12:54:51.284Z,11.20
2022-11-10T12:57:47.983Z,11.20
2022-11-10T13:00:56.756Z,11.28
2022-11-10T13:04:03.155Z,11.30
2022-11-10T13:07:10.275Z,11.30
2022-11-10T13:13:15.805Z,11.36
2022-11-10T13:16:33.079Z,11.30
2022-11-10T13:20:09.395Z,11.30
2022-11-10T13:23:31.250Z,11.28
2022-11-10T13:26:55.657Z,11.20
2022-11-10T13:30:03.419Z,11.10
2022-11-10T13:33:17.998Z,11.10
2022-11-10T13:36:33.327Z,11.00
2022-11-10T13:39:34.484Z,10.90
2022-11-10T13:42:29.165Z,10.82
2022-11-10T13:45:42.373Z,10.80
2022-11-10T13:49:22.081Z,10.74
2022-11-10T13:52:28.211Z,10.70
2022-11-10T13:55:51.257Z,10.70
2022-11-10T13:58:48.235Z,10.70
2022-11-10T14:01:42.690Z,10.64
2022-11-10T14:04:49.007Z,10.60
2022-11-10T14:07:50.237Z,10.58
2022-11-10T14:10:53.730Z,10.50
2022-11-10T14:13:55.710Z,10.46
2022-11-10T14:16:53.137Z,10.40
2022-11-10T14:19:49.972Z,10.38
2022-11-10T14:22:49.358Z,10.30
2022-11-10T14:25:46.962Z,10.30
2022-11-10T14:28:42.128Z,10.20
2022-11-10T14:31:36.743Z,10.10
2022-11-10T14:34:33.582Z,10.10
2022-11-10T14:37:30.729Z,10.00
2022-11-10T14:40:26.573Z,9.90
2022-11-10T14:43:34.942Z,9.90
2022-11-10T14:46:29.856Z,9.80
2022-11-10T14:49:29.875Z,9.80
2022-11-10T14:52:24.397Z,9.70
2022-11-10T14:55:29.265Z,9.70
2022-11-10T14:58:33.104Z,9.70
2022-11-10T15:01:35.326Z,9.70
2022-11-10T15:04:36.640Z,9.70
2022-11-10T15:07:31.487Z,9.80
2022-11-10T15:10:43.128Z,9.80
2022-11-10T15:13:42.608Z,9.90
2022-11-10T15:16:38.772Z,9.98
2022-11-10T15:19:39.342Z,9.92
2022-11-10T15:22:38.701Z,9.98
2022-11-10T15:25:41.475Z,10.00
2022-11-10T15:28:38.493Z,10.00
2022-11-10T15:31:36.761Z,10.00
2022-11-10T15:34:46.998Z,9.90
2022-11-10T15:37:41.352Z,9.90
2022-11-10T15:40:49.589Z,9.82
2022-11-10T15:43:44.484Z,9.80
2022-11-10T15:46:39.028Z,9.80
2022-11-10T15:49:38.272Z,9.80
2022-11-10T15:52:33.654Z,9.70
2022-11-10T15:55:30.997Z,9.70
2022-11-10T15:58:28.663Z,9.70
2022-11-10T16:01:24.082Z,9.70
2022-11-10T16:04:18.859Z,9.70
2022-11-10T16:07:16.413Z,9.70
2022-11-10T16:10:12.602Z,9.70
2022-11-10T16:13:07.317Z,9.70
2022-11-10T16:16:04.674Z,9.70
2022-11-10T16:18:59.526Z,9.70
2022-11-10T16:21:54.564Z,9.70
2022-11-10T16:24:48.812Z,9.72
2022-11-10T16:27:43.846Z,9.76
2022-11-10T16:30:38.687Z,9.70
2022-11-10T16:33:33.039Z,9.74
2022-11-10T16:36:34.298Z,9.78
2022-11-10T16:39:29.926Z,9.80
2022-11-10T16:42:24.338Z,9.80
2022-11-10T16:45:30.272Z,9.78
2022-11-10T16:48:31.714Z,9.78
2022-11-10T16:51:35.119Z,9.80
2022-11-10T16:54:29.895Z,9.80
2022-11-10T16:57:24.620Z,9.78
2022-11-10T17:00:22.524Z,9.70
2022-11-10T17:03:30.134Z,9.70
2022-11-10T17:06:26.718Z,9.70
2022-11-10T17:09:26.780Z,9.70
2022-11-10T17:12:22.103Z,9.62
2022-11-10T17:15:19.961Z,9.60
2022-11-10T17:18:19.345Z,9.60
2022-11-10T17:21:16.670Z,9.60
2022-11-10T17:24:17.341Z,9.50
2022-11-10T17:27:12.766Z,9.50
2022-11-10T17:30:10.830Z,9.50
2022-11-10T17:33:05.987Z,9.50
2022-11-10T17:36:05.020Z,9.50
2022-11-10T17:39:01.236Z,9.50
2022-11-10T17:41:56.136Z,9.50
2022-11-10T17:44:50.717Z,9.50
2022-11-10T17:47:45.386Z,9.50
2022-11-10T17:50:43.344Z,9.50
2022-11-10T17:53:38.337Z,9.50
2022-11-10T17:56:33.614Z,9.50
2022-11-10T17:59:28.106Z,9.50
2022-11-10T18:02:22.286Z,9.42
2022-11-10T18:05:19.776Z,9.40
2022-11-10T18:08:16.332Z,9.40
2022-11-10T18:11:14.537Z,9.40
2022-11-10T18:14:10.465Z,9.38
2022-11-10T18:17:05.203Z,9.40
2022-11-10T18:19:59.992Z,9.38
2022-11-10T18:22:54.504Z,9.36
2022-11-10T18:25:49.199Z,9.34
2022-11-10T18:28:48.598Z,9.34
2022-11-10T18:31:43.448Z,9.32
2022-11-10T18:34:37.877Z,9.30
2022-11-10T18:37:34.721Z,9.30
2022-11-10T18:40:32.470Z,9.26
2022-11-10T18:43:27.179Z,9.20
2022-11-10T18:46:21.648Z,9.18
2022-11-10T18:49:16.767Z,9.10
2022-11-10T18:52:11.898Z,9.08
2022-11-10T18:55:07.978Z,9.00
2022-11-10T18:58:03.487Z,9.00
2022-11-10T19:01:07.052Z,8.90
2022-11-10T19:04:02.408Z,8.90
2022-11-10T19:06:56.693Z,8.80
2022-11-10T19:09:51.314Z,8.76
2022-11-10T19:12:45.683Z,8.70
2022-11-10T19:15:45.182Z,8.66
2022-11-10T19:18:41.050Z,8.60
2022-11-10T19:21:36.074Z,8.60
2022-11-10T19:24:42.384Z,8.60
2022-11-10T19:27:45.629Z,8.56
2022-11-10T19:30:40.725Z,8.50
2022-11-10T19:33:38.864Z,8.50
2022-11-10T19:36:35.785Z,8.44
2022-11-10T19:39:30.201Z,8.40
2022-11-10T19:42:24.920Z,8.30
2022-11-10T19:45:19.544Z,8.26
2022-11-10T19:48:14.299Z,8.20
2022-11-10T19:51:12.803Z,8.10
2022-11-10T19:54:09.343Z,8.00
2022-11-10T19:57:04.049Z,7.90
2022-11-10T19:59:59.333Z,7.80
2022-11-10T20:02:53.810Z,7.70
2022-11-10T20:05:48.493Z,7.68
2022-11-10T20:08:44.424Z,7.60
2022-11-10T20:11:38.836Z,7.48
2022-11-10T20:14:36.224Z,7.40
2022-11-10T20:17:30.980Z,7.30
2022-11-10T20:20:26.492Z,7.20
2022-11-10T20:23:21.253Z,7.10
2022-11-10T20:26:19.025Z,7.10
2022-11-10T20:29:13.739Z,7.00
2022-11-10T20:32:08.926Z,7.00
2022-11-10T20:35:05.742Z,6.90
2022-11-10T20:38:01.878Z,6.84
2022-11-10T20:41:07.964Z,6.80
2022-11-10T20:44:02.567Z,6.70
2022-11-10T20:46:57.502Z,6.70
2022-11-10T20:49:52.401Z,6.70
2022-11-10T20:52:49.433Z,6.60
2022-11-10T20:55:53.641Z,6.60
2022-11-10T20:58:51.942Z,6.58
2022-11-10T21:01:46.512Z,6.50
2022-11-10T21:04:43.176Z,6.50
2022-11-10T21:07:38.083Z,6.50
2022-11-10T21:10:33.084Z,6.50
2022-11-10T21:13:29.170Z,6.40
2022-11-10T21:16:23.771Z,6.40
2022-11-10T21:19:18.740Z,6.40
2022-11-10T21:22:13.240Z,6.30
2022-11-10T21:25:09.592Z,6.26
2022-11-10T21:28:06.062Z,6.20
2022-11-10T21:31:09.550Z,6.20
2022-11-10T21:34:04.379Z,6.20
2022-11-10T21:36:59.387Z,6.20
2022-11-10T21:39:54.251Z,6.14
2022-11-10T21:42:48.923Z,6.10
2022-11-10T21:45:44.141Z,6.10
2022-11-10T21:48:39.805Z,6.00
2022-11-10T21:51:34.902Z,6.00
2022-11-10T21:54:30.647Z,6.00
2022-11-10T21:57:25.926Z,5.98
2022-11-10T22:00:23.761Z,5.90
2022-11-10T22:03:23.140Z,5.90
2022-11-10T22:06:21.281Z,5.90
2022-11-10T22:09:37.167Z,5.90
2022-11-10T22:12:49.949Z,5.90
2022-11-10T22:16:03.323Z,5.90
2022-11-10T22:18:58.271Z,5.90
2022-11-10T22:21:53.305Z,5.90
2022-11-10T22:24:48.282Z,5.90
2022-11-10T22:27:44.407Z,5.90
2022-11-10T22:30:40.286Z,5.90
2022-11-10T22:33:37.571Z,5.88
2022-11-10T22:36:32.112Z,5.80
2022-11-10T22:39:47.435Z,5.80
2022-11-10T22:43:00.284Z,5.80
2022-11-10T22:45:55.483Z,5.78
2022-11-10T22:48:50.455Z,5.70
2022-11-10T22:51:47.105Z,5.70
2022-11-10T22:54:41.575Z,5.70
2022-11-10T22:57:36.334Z,5.70
2022-11-10T23:00:31.008Z,5.70
2022-11-10T23:03:25.984Z,5.60
2022-11-10T23:06:21.765Z,5.60
2022-11-10T23:09:16.737Z,5.60
2022-11-10T23:12:11.848Z,5.60
2022-11-10T23:15:07.262Z,5.60
2022-11-10T23:18:06.490Z,5.50
2022-11-10T23:21:08.107Z,5.50
2022-11-10T23:24:02.745Z,5.50
2022-11-10T23:26:57.126Z,5.44
2022-11-10T23:29:51.923Z,5.40
2022-11-10T23:32:46.361Z,5.40
2022-11-10T23:35:41.885Z,5.40
2022-11-10T23:38:38.986Z,5.40
2022-11-10T23:41:34.388Z,5.32
2022-11-10T23:44:29.216Z,5.30
2022-11-10T23:47:23.853Z,5.30
2022-11-10T23:50:18.991Z,5.30
2022-11-10T23:53:14.194Z,5.26
2022-11-10T23:56:13.885Z,5.20
2022-11-10T23:59:09.263Z,5.20
